Time;durP1;ratioP1;P1;durP2;ratioP2;P2;SDS_P1;SDS_P2;PMS_P1;PMS_P2;Temp;Humidity;BMP_temperature;BMP_pressure;BME280_temperature;BME280_humidity;BME280_pressure;Samples;Min_cycle;Max_cycle;Signal;HPM_P1;HPM_P2
2023/06/26 00:01:29;;;;;;;5.78;5.28;;;24.00;64.20;;;;;;5099503;28;20199;-70
2023/06/26 00:03:55;;;;;;;5.88;5.38;;;24.00;64.20;;;;;;5073837;28;20177;-70
2023/06/26 00:06:24;;;;;;;5.05;4.65;;;24.00;64.20;;;;;;5099417;28;20188;-70
2023/06/26 00:08:50;;;;;;;5.68;5.18;;;24.00;64.10;;;;;;5073741;28;20184;-69
2023/06/26 00:11:16;;;;;;;5.35;4.95;;;24.00;64.20;;;;;;5109207;28;20203;-70
2023/06/26 00:13:42;;;;;;;5.57;5.07;;;24.00;64.20;;;;;;5080792;28;20188;-70
2023/06/26 00:16:08;;;;;;;5.75;5.25;;;24.00;64.30;;;;;;5073990;28;20193;-70
2023/06/26 00:18:34;;;;;;;5.30;4.90;;;24.00;64.30;;;;;;5098533;28;20188;-70
2023/06/26 00:20:59;;;;;;;5.53;5.03;;;24.00;64.30;;;;;;5090846;28;20265;-70
2023/06/26 00:23:26;;;;;;;5.68;5.22;;;24.00;64.20;;;;;;5081487;28;20218;-70
2023/06/26 00:25:52;;;;;;;5.80;5.30;;;24.00;64.30;;;;;;5073696;28;20193;-70
2023/06/26 00:28:17;;;;;;;5.78;5.28;;;24.00;64.30;;;;;;5089844;28;20193;-70
2023/06/26 00:30:43;;;;;;;5.30;4.85;;;24.00;64.40;;;;;;5098471;28;20209;-70
2023/06/26 00:33:09;;;;;;;5.47;4.97;;;24.00;64.40;;;;;;5069884;28;20202;-69
2023/06/26 00:35:35;;;;;;;5.47;4.97;;;24.00;64.40;;;;;;5106793;28;20231;-70
2023/06/26 00:38:03;;;;;;;5.57;5.07;;;24.00;64.40;;;;;;5090498;28;20263;-69
2023/06/26 00:40:29;;;;;;;5.53;5.03;;;24.00;64.40;;;;;;5080693;28;20233;-69
2023/06/26 00:42:56;;;;;;;5.32;4.82;;;24.00;64.50;;;;;;5073062;28;20246;-70
2023/06/26 00:45:22;;;;;;;6.18;5.57;;;24.00;64.50;;;;;;5090231;28;20200;-69
2023/06/26 00:47:48;;;;;;;5.15;4.75;;;24.00;64.50;;;;;;5073237;28;20185;-70
2023/06/26 00:50:15;;;;;;;5.53;5.07;;;24.00;64.50;;;;;;5090377;28;20216;-70
2023/06/26 00:52:41;;;;;;;5.05;4.65;;;24.00;64.40;;;;;;5072905;28;20708;-70
2023/06/26 00:55:09;;;;;;;5.13;4.72;;;23.90;64.30;;;;;;5073397;28;20223;-70
2023/06/26 00:57:36;;;;;;;5.68;5.18;;;24.00;64.50;;;;;;5073460;28;20206;-70
2023/06/26 01:00:03;;;;;;;5.43;5.03;;;24.00;64.40;;;;;;5090102;28;20280;-70
2023/06/26 01:02:33;;;;;;;6.00;5.50;;;23.90;64.30;;;;;;5091005;28;20243;-70
2023/06/26 01:05:05;;;;;;;5.50;5.00;;;23.90;64.40;;;;;;5093681;28;20188;-70
2023/06/26 01:07:36;;;;;;;5.80;5.30;;;24.00;64.50;;;;;;5106697;28;20189;-70
2023/06/26 01:10:06;;;;;;;5.40;4.85;;;23.90;64.40;;;;;;5079200;28;20207;-70
2023/06/26 01:12:33;;;;;;;5.40;4.90;;;23.90;64.40;;;;;;5109877;28;20212;-70
2023/06/26 01:15:00;;;;;;;5.10;4.70;;;23.90;64.40;;;;;;5095783;28;20177;-69
2023/06/26 01:17:33;;;;;;;5.72;5.22;;;23.90;64.40;;;;;;5098448;28;20211;-70
2023/06/26 01:20:07;;;;;;;5.00;4.60;;;23.90;64.50;;;;;;5090023;28;20204;-70
2023/06/26 01:23:10;;;;;;;5.50;5.00;;;23.90;64.50;;;;;;5075300;28;20203;-70
2023/06/26 01:26:17;;;;;;;5.70;5.20;;;23.90;64.50;;;;;;5094214;28;20191;-70
2023/06/26 01:28:44;;;;;;;5.45;4.95;;;23.90;64.50;;;;;;5081249;28;20559;-70
2023/06/26 01:31:14;;;;;;;5.43;4.93;;;23.90;64.50;;;;;;5089660;28;20210;-70
2023/06/26 01:33:41;;;;;;;4.93;4.50;;;23.90;64.40;;;;;;5084810;28;20205;-70
2023/06/26 01:36:08;;;;;;;5.72;5.25;;;23.90;64.50;;;;;;5077531;28;20177;-70
2023/06/26 01:38:35;;;;;;;5.25;4.85;;;23.90;64.50;;;;;;5096345;28;20205;-70
2023/06/26 01:41:03;;;;;;;5.15;4.75;;;23.90;64.50;;;;;;5114323;28;20180;-70
2023/06/26 01:43:55;;;;;;;5.35;4.88;;;23.90;64.50;;;;;;5104896;28;20299;-70
2023/06/26 01:46:32;;;;;;;5.65;5.03;;;23.90;64.60;;;;;;5105206;28;20192;-70
2023/06/26 01:49:29;;;;;;;5.65;5.15;;;23.90;64.50;;;;;;5093787;28;20222;-70
2023/06/26 01:52:14;;;;;;;5.35;4.88;;;23.90;64.50;;;;;;5069617;28;20205;-69
2023/06/26 01:54:52;;;;;;;5.25;4.82;;;23.90;64.60;;;;;;5093649;28;20188;-70
2023/06/26 01:57:22;;;;;;;5.15;4.75;;;23.90;64.60;;;;;;5076671;28;20661;-70
2023/06/26 01:59:51;;;;;;;5.10;4.70;;;23.80;64.50;;;;;;5102071;28;20220;-70
2023/06/26 02:02:18;;;;;;;5.47;4.97;;;23.90;64.60;;;;;;5084613;28;20200;-70
2023/06/26 02:04:44;;;;;;;5.55;5.05;;;23.80;64.60;;;;;;5119199;27;20246;-70
2023/06/26 02:07:10;;;;;;;5.03;4.63;;;23.80;64.60;;;;;;5093664;28;20303;-70
2023/06/26 02:09:36;;;;;;;5.45;4.95;;;23.90;64.70;;;;;;5087021;28;20300;-70
2023/06/26 02:12:01;;;;;;;4.90;4.50;;;23.80;64.50;;;;;;5130378;27;20196;-70
2023/06/26 02:14:27;;;;;;;5.35;4.88;;;23.80;64.50;;;;;;5096699;28;20634;-70
2023/06/26 02:16:53;;;;;;;5.10;4.70;;;23.90;64.60;;;;;;5113434;28;20180;-70
2023/06/26 02:19:21;;;;;;;5.38;4.97;;;23.80;64.50;;;;;;5096497;28;20202;-70
2023/06/26 02:21:49;;;;;;;5.38;4.97;;;23.80;64.50;;;;;;5081040;28;20202;-70
2023/06/26 02:24:16;;;;;;;4.85;4.45;;;23.80;64.70;;;;;;5072348;28;20558;-70
2023/06/26 02:26:41;;;;;;;4.93;4.53;;;23.80;64.60;;;;;;5094624;28;20263;-70
2023/06/26 02:29:10;;;;;;;5.10;4.70;;;23.80;64.40;;;;;;5080947;28;20188;-70
2023/06/26 02:31:39;;;;;;;5.45;5.05;;;23.80;64.60;;;;;;5072577;28;20201;-71
2023/06/26 02:34:05;;;;;;;5.47;4.97;;;23.80;64.70;;;;;;5075926;28;20177;-70
2023/06/26 02:36:33;;;;;;;5.32;4.93;;;23.80;64.70;;;;;;5094063;28;20212;-70
2023/06/26 02:38:59;;;;;;;5.28;4.78;;;23.80;64.60;;;;;;5092743;28;20184;-70
2023/06/26 02:41:25;;;;;;;5.10;4.70;;;23.80;64.60;;;;;;5090132;28;20181;-70
2023/06/26 02:43:51;;;;;;;4.93;4.53;;;23.80;64.70;;;;;;5075704;28;20207;-70
2023/06/26 02:46:17;;;;;;;5.07;4.68;;;23.80;64.70;;;;;;5076388;28;20193;-70
2023/06/26 02:48:43;;;;;;;5.68;5.18;;;23.80;64.70;;;;;;5093013;28;20185;-70
2023/06/26 02:51:09;;;;;;;5.57;5.07;;;23.80;64.80;;;;;;5092437;28;20201;-70
2023/06/26 02:53:35;;;;;;;4.93;4.53;;;23.80;64.90;;;;;;5073821;28;20197;-70
2023/06/26 02:56:01;;;;;;;5.00;4.60;;;23.80;64.80;;;;;;5075975;28;20188;-70
2023/06/26 02:58:27;;;;;;;4.90;4.50;;;23.80;64.90;;;;;;5106866;28;20185;-70
2023/06/26 03:00:53;;;;;;;5.70;5.20;;;23.80;64.80;;;;;;5092241;28;20185;-70
2023/06/26 03:03:19;;;;;;;5.35;4.85;;;23.80;64.80;;;;;;5074546;28;20222;-70
2023/06/26 03:05:45;;;;;;;5.18;4.68;;;23.80;64.70;;;;;;5092163;28;20193;-70
2023/06/26 03:08:11;;;;;;;5.07;4.68;;;23.80;64.80;;;;;;5091953;28;20185;-71
2023/06/26 03:10:37;;;;;;;5.10;4.70;;;23.80;64.70;;;;;;5092529;28;20209;-70
2023/06/26 03:13:03;;;;;;;4.78;4.38;;;23.80;64.90;;;;;;5071270;28;20713;-70
2023/06/26 03:15:28;;;;;;;5.05;4.65;;;23.80;65.00;;;;;;5086839;28;20185;-70
2023/06/26 03:17:54;;;;;;;5.47;5.03;;;23.80;64.90;;;;;;5075192;28;20184;-70
2023/06/26 03:20:24;;;;;;;4.88;4.47;;;23.80;64.90;;;;;;5071886;28;20571;-69
2023/06/26 03:22:57;;;;;;;5.03;4.63;;;23.80;64.90;;;;;;5091419;28;20196;-70
2023/06/26 03:25:23;;;;;;;5.15;4.65;;;23.80;64.90;;;;;;5091838;28;20275;-70
2023/06/26 03:27:55;;;;;;;5.03;4.63;;;23.80;64.90;;;;;;5074543;28;20696;-70
2023/06/26 03:30:21;;;;;;;5.10;4.68;;;23.80;64.90;;;;;;5091786;28;20217;-70
2023/06/26 03:32:50;;;;;;;4.68;4.28;;;23.80;64.90;;;;;;5108106;28;20201;-70
2023/06/26 03:35:17;;;;;;;4.65;4.35;;;23.80;64.90;;;;;;5091882;28;20260;-70
2023/06/26 03:37:42;;;;;;;5.05;4.65;;;23.80;64.90;;;;;;5091523;28;20334;-70
2023/06/26 03:40:09;;;;;;;5.03;4.63;;;23.80;64.90;;;;;;5074498;28;20191;-70
2023/06/26 03:42:36;;;;;;;5.00;4.60;;;23.80;65.00;;;;;;5090924;28;20754;-70
2023/06/26 03:45:03;;;;;;;5.00;4.60;;;23.80;65.00;;;;;;5077011;28;20204;-70
2023/06/26 03:47:29;;;;;;;5.03;4.63;;;23.80;65.00;;;;;;5088503;28;20291;-70
2023/06/26 03:49:56;;;;;;;4.78;4.38;;;23.80;65.00;;;;;;5095273;28;20205;-70
2023/06/26 03:52:22;;;;;;;6.05;5.05;;;23.70;64.90;;;;;;5069913;28;20631;-70
2023/06/26 03:54:48;;;;;;;6.70;4.63;;;23.70;64.90;;;;;;5085743;28;20180;-70
2023/06/26 03:57:16;;;;;;;5.07;4.57;;;23.80;64.90;;;;;;5095864;28;20185;-70
2023/06/26 03:59:41;;;;;;;4.95;4.55;;;23.70;64.90;;;;;;5099367;28;20188;-70
2023/06/26 04:02:07;;;;;;;5.00;4.60;;;23.70;65.60;;;;;;5073666;28;20200;-70
2023/06/26 04:04:33;;;;;;;4.93;4.55;;;23.70;64.90;;;;;;5090943;28;20219;-69
2023/06/26 04:06:59;;;;;;;5.28;4.88;;;23.70;64.90;;;;;;5091171;28;20222;-69
2023/06/26 04:09:25;;;;;;;5.10;4.70;;;23.70;64.90;;;;;;5074031;28;20688;-69
2023/06/26 04:11:51;;;;;;;4.65;4.25;;;23.80;65.00;;;;;;5085486;28;20208;-69
2023/06/26 04:14:17;;;;;;;4.90;4.50;;;23.70;64.90;;;;;;5095591;28;20201;-69
2023/06/26 04:16:43;;;;;;;4.80;4.40;;;23.70;64.90;;;;;;5073079;28;20220;-69
2023/06/26 04:19:10;;;;;;;4.57;4.28;;;23.80;65.00;;;;;;5072711;28;20658;-69
2023/06/26 04:21:35;;;;;;;4.72;4.25;;;23.70;64.90;;;;;;5100175;28;20185;-69
2023/06/26 04:24:01;;;;;;;4.70;4.30;;;23.70;64.90;;;;;;5106007;28;20207;-69
2023/06/26 04:26:27;;;;;;;4.78;4.38;;;23.70;64.90;;;;;;5099927;28;20270;-68
2023/06/26 04:28:54;;;;;;;4.55;4.15;;;23.80;65.30;;;;;;5090453;28;20177;-69
2023/06/26 04:31:20;;;;;;;4.60;4.25;;;23.80;65.60;;;;;;5090511;28;20217;-69
2023/06/26 04:33:50;;;;;;;5.32;4.50;;;23.80;65.70;;;;;;5072977;28;20230;-70
2023/06/26 04:36:17;;;;;;;4.40;4.03;;;23.80;66.00;;;;;;5090944;28;20184;-70
2023/06/26 04:38:43;;;;;;;5.05;4.28;;;23.80;66.00;;;;;;5090170;28;20192;-69
2023/06/26 04:41:09;;;;;;;5.18;4.68;;;23.80;66.30;;;;;;5072159;28;20197;-70
2023/06/26 04:43:34;;;;;;;5.50;5.07;;;23.80;65.90;;;;;;5080836;28;20205;-71
2023/06/26 04:46:02;;;;;;;5.95;5.45;;;23.70;64.90;;;;;;5077867;28;20529;-70
2023/06/26 04:48:28;;;;;;;5.53;5.10;;;23.60;64.00;;;;;;5093253;28;20189;-70
2023/06/26 04:50:55;;;;;;;5.72;5.20;;;23.60;64.10;;;;;;5086329;28;20217;-70
2023/06/26 04:53:23;;;;;;;6.00;5.43;;;23.50;63.60;;;;;;5084984;28;20201;-71
2023/06/26 04:55:52;;;;;;;7.35;6.05;;;23.50;63.30;;;;;;5089811;28;20199;-71
2023/06/26 04:58:19;;;;;;;6.45;5.85;;;23.50;63.00;;;;;;5098055;28;20187;-71
2023/06/26 05:00:45;;;;;;;6.78;6.20;;;23.50;62.70;;;;;;5089823;28;20213;-71
2023/06/26 05:03:17;;;;;;;7.25;6.55;;;23.50;63.10;;;;;;5077417;28;20200;-70
2023/06/26 05:05:43;;;;;;;7.75;6.90;;;23.40;62.40;;;;;;5108249;28;20227;-70
2023/06/26 05:08:22;;;;;;;7.30;6.50;;;23.50;62.40;;;;;;5073217;28;20220;-71
2023/06/26 05:10:48;;;;;;;6.88;6.28;;;23.40;62.40;;;;;;5075716;28;20308;-70
2023/06/26 05:13:17;;;;;;;6.65;6.05;;;23.50;62.70;;;;;;5101316;28;20200;-71
2023/06/26 05:15:44;;;;;;;7.22;6.63;;;23.50;63.70;;;;;;5108617;28;20651;-70
2023/06/26 05:18:10;;;;;;;7.68;6.70;;;23.50;64.60;;;;;;5078253;28;20184;-71
2023/06/26 05:20:36;;;;;;;9.45;6.88;;;23.60;64.70;;;;;;5109786;28;20209;-71
2023/06/26 05:23:03;;;;;;;7.78;6.57;;;23.60;63.70;;;;;;5071815;28;20234;-70
2023/06/26 05:25:31;;;;;;;8.63;6.80;;;23.50;63.80;;;;;;5097555;28;20192;-70
2023/06/26 05:27:58;;;;;;;7.43;6.72;;;23.50;64.70;;;;;;5092051;28;20253;-70
2023/06/26 05:30:25;;;;;;;7.60;6.70;;;23.50;65.20;;;;;;5076122;28;20204;-70
2023/06/26 05:32:53;;;;;;;7.63;6.82;;;23.60;65.90;;;;;;5063239;28;20308;-70
2023/06/26 05:35:23;;;;;;;7.70;6.88;;;23.60;66.10;;;;;;5095621;28;20188;-70
2023/06/26 05:37:51;;;;;;;7.78;7.00;;;23.70;66.20;;;;;;5104540;28;20194;-70
2023/06/26 05:40:18;;;;;;;8.85;7.07;;;23.70;66.10;;;;;;5092014;28;20240;-70
2023/06/26 05:42:45;;;;;;;9.10;6.78;;;23.70;66.10;;;;;;5070390;28;20212;-70
2023/06/26 05:45:11;;;;;;;7.85;7.15;;;23.70;66.10;;;;;;5070749;28;20177;-70
2023/06/26 05:47:37;;;;;;;7.43;6.45;;;23.70;65.80;;;;;;5095357;28;20207;-70
2023/06/26 05:50:04;;;;;;;8.02;7.05;;;23.70;65.90;;;;;;5068618;28;20216;-70
2023/06/26 05:52:30;;;;;;;9.90;7.55;;;23.70;65.90;;;;;;5105397;28;20211;-71
2023/06/26 05:55:00;;;;;;;8.10;7.30;;;23.80;66.00;;;;;;5090939;28;20633;-70
2023/06/26 05:57:28;;;;;;;9.60;7.15;;;23.80;65.90;;;;;;5101425;28;20204;-69
2023/06/26 05:59:54;;;;;;;8.15;7.35;;;23.80;65.90;;;;;;5100069;28;20237;-70
2023/06/26 06:02:21;;;;;;;10.60;6.63;;;23.80;65.90;;;;;;5076448;28;20291;-70
2023/06/26 06:04:47;;;;;;;9.05;6.72;;;23.80;65.90;;;;;;5090310;28;20210;-70
2023/06/26 06:07:13;;;;;;;7.97;6.65;;;23.80;65.80;;;;;;5086878;28;20186;-70
2023/06/26 06:09:39;;;;;;;7.55;6.40;;;23.80;65.70;;;;;;5094143;28;20205;-70
2023/06/26 06:12:06;;;;;;;7.53;6.70;;;23.80;65.60;;;;;;5105455;28;20284;-70
2023/06/26 06:14:33;;;;;;;9.13;6.47;;;23.80;65.70;;;;;;5083819;28;20176;-69
2023/06/26 06:16:59;;;;;;;9.15;6.85;;;23.80;65.70;;;;;;5092567;28;20193;-70
2023/06/26 06:19:25;;;;;;;7.57;6.70;;;23.80;65.70;;;;;;5097322;28;20276;-70
2023/06/26 06:21:50;;;;;;;7.78;6.05;;;23.80;65.80;;;;;;5100777;28;20211;-69
2023/06/26 06:24:16;;;;;;;8.05;6.60;;;23.80;65.80;;;;;;5115723;27;20266;-70
2023/06/26 06:26:42;;;;;;;7.43;6.15;;;23.80;65.70;;;;;;5092116;28;20200;-70
2023/06/26 06:29:08;;;;;;;10.50;6.40;;;23.80;65.70;;;;;;5069759;28;20185;-70
2023/06/26 06:31:33;;;;;;;9.10;6.05;;;23.90;65.90;;;;;;5087997;28;20657;-70
2023/06/26 06:33:59;;;;;;;7.40;6.28;;;23.80;65.70;;;;;;5092893;28;20267;-69
2023/06/26 06:36:25;;;;;;;6.75;5.97;;;23.80;65.70;;;;;;5101824;28;20189;-69
2023/06/26 06:38:51;;;;;;;7.22;6.32;;;23.90;65.90;;;;;;5100740;28;20271;-70
2023/06/26 06:41:17;;;;;;;7.70;6.38;;;23.90;66.00;;;;;;5096290;28;20219;-70
2023/06/26 06:43:43;;;;;;;7.15;6.00;;;23.90;66.00;;;;;;5103143;28;20219;-70
2023/06/26 06:46:08;;;;;;;7.28;6.57;;;23.90;66.00;;;;;;5071572;28;20174;-70
2023/06/26 06:48:35;;;;;;;6.57;5.97;;;23.90;66.60;;;;;;5088070;28;20253;-70
2023/06/26 06:51:01;;;;;;;7.00;6.30;;;23.90;65.80;;;;;;5072513;28;20208;-70
2023/06/26 06:53:26;;;;;;;6.90;6.20;;;23.90;65.80;;;;;;5083778;28;20220;-70
2023/06/26 06:55:52;;;;;;;6.70;6.07;;;23.90;65.80;;;;;;5090173;28;20189;-70
2023/06/26 06:58:22;;;;;;;6.57;5.97;;;23.90;65.80;;;;;;5091369;28;20177;-70
2023/06/26 07:00:49;;;;;;;10.00;6.25;;;23.90;65.80;;;;;;5098348;28;20195;-69
2023/06/26 07:03:15;;;;;;;7.18;6.07;;;23.90;65.80;;;;;;5090691;28;20236;-70
2023/06/26 07:05:44;;;;;;;8.20;6.20;;;23.90;65.90;;;;;;5100451;28;20231;-70
2023/06/26 07:08:10;;;;;;;6.30;5.70;;;23.90;65.90;;;;;;5070756;28;20678;-70
2023/06/26 07:10:36;;;;;;;5.90;5.30;;;24.00;66.00;;;;;;5090571;28;20204;-70
2023/06/26 07:13:01;;;;;;;6.93;6.22;;;24.00;66.00;;;;;;5092073;28;20203;-70
2023/06/26 07:15:27;;;;;;;6.25;5.75;;;23.90;66.00;;;;;;5103427;28;20180;-70
2023/06/26 07:17:53;;;;;;;6.22;5.63;;;23.90;66.00;;;;;;5111689;27;20196;-70
2023/06/26 07:20:19;;;;;;;6.15;5.55;;;24.00;66.10;;;;;;5081809;28;20191;-69
2023/06/26 07:22:45;;;;;;;5.90;5.38;;;23.90;66.00;;;;;;5090585;28;20219;-70
2023/06/26 07:25:11;;;;;;;6.05;5.55;;;24.00;66.10;;;;;;5072926;28;20186;-69
2023/06/26 07:27:38;;;;;;;6.03;5.53;;;24.00;66.10;;;;;;5057020;28;20212;-69
2023/06/26 07:30:04;;;;;;;7.68;5.85;;;23.90;66.00;;;;;;5096144;28;20202;-70
2023/06/26 07:32:30;;;;;;;5.97;5.43;;;24.00;66.10;;;;;;5086160;28;20238;-69
2023/06/26 07:34:56;;;;;;;5.78;5.28;;;24.00;66.10;;;;;;5097976;28;20180;-70
2023/06/26 07:37:22;;;;;;;5.90;5.38;;;24.00;66.10;;;;;;5090177;28;20191;-70
2023/06/26 07:39:49;;;;;;;5.63;5.13;;;24.00;66.00;;;;;;5099108;28;20188;-70
2023/06/26 07:42:15;;;;;;;6.35;5.75;;;24.00;66.00;;;;;;5093901;28;20208;-70
2023/06/26 07:44:43;;;;;;;5.25;4.80;;;24.00;66.00;;;;;;5102208;28;20199;-70
2023/06/26 07:47:09;;;;;;;6.25;5.65;;;24.00;66.00;;;;;;5098047;28;20573;-70
2023/06/26 07:49:35;;;;;;;5.60;5.10;;;24.00;66.00;;;;;;5106699;28;20194;-70
2023/06/26 07:52:01;;;;;;;5.75;5.25;;;24.00;66.00;;;;;;5089840;28;20574;-70
2023/06/26 07:54:27;;;;;;;6.28;5.68;;;24.00;65.80;;;;;;5100474;28;20188;-70
2023/06/26 07:57:01;;;;;;;5.35;4.95;;;24.10;65.90;;;;;;5098773;28;20189;-70
2023/06/26 07:59:29;;;;;;;5.53;5.03;;;24.10;66.00;;;;;;5090589;28;20284;-70
2023/06/26 08:01:57;;;;;;;6.00;5.43;;;24.10;66.00;;;;;;5107526;28;20228;-70
2023/06/26 08:04:26;;;;;;;5.45;4.97;;;24.10;65.90;;;;;;5072194;28;20193;-70
2023/06/26 08:06:55;;;;;;;5.35;4.85;;;24.10;66.00;;;;;;5103399;28;20195;-70
2023/06/26 08:09:24;;;;;;;5.50;5.00;;;24.10;65.90;;;;;;5079940;28;20196;-69
2023/06/26 08:11:50;;;;;;;6.18;5.05;;;24.10;65.90;;;;;;5099253;28;20215;-69
2023/06/26 08:14:17;;;;;;;5.95;5.35;;;24.10;65.90;;;;;;5078380;28;20184;-70
2023/06/26 08:16:44;;;;;;;5.35;4.85;;;24.10;66.00;;;;;;5088971;28;20182;-70
2023/06/26 08:19:11;;;;;;;5.72;5.22;;;24.20;66.00;;;;;;5117325;27;20572;-69
2023/06/26 08:21:37;;;;;;;5.40;5.00;;;24.10;65.90;;;;;;5083053;28;20217;-69
2023/06/26 08:24:03;;;;;;;5.32;4.82;;;24.20;65.90;;;;;;5075474;28;20685;-70
2023/06/26 08:26:28;;;;;;;6.22;5.63;;;24.20;66.00;;;;;;5110113;28;20267;-70
2023/06/26 08:28:55;;;;;;;5.63;5.10;;;24.20;66.00;;;;;;5076170;28;20208;-69
2023/06/26 08:31:21;;;;;;;5.82;5.15;;;24.20;66.80;;;;;;5099439;27;20300;-69
2023/06/26 08:33:47;;;;;;;5.55;4.97;;;24.20;65.70;;;;;;5095496;28;20195;-70
2023/06/26 08:36:13;;;;;;;4.95;4.55;;;24.20;65.90;;;;;;5097924;28;20272;-70
2023/06/26 08:38:41;;;;;;;5.03;4.55;;;24.20;66.00;;;;;;5106519;28;20185;-69
2023/06/26 08:41:08;;;;;;;5.18;4.78;;;24.20;65.90;;;;;;5083477;28;20172;-69
2023/06/26 08:43:35;;;;;;;4.97;4.57;;;24.20;65.90;;;;;;5109050;28;20276;-70
2023/06/26 08:46:02;;;;;;;5.68;5.07;;;24.30;65.80;;;;;;5124377;27;20200;-69
2023/06/26 08:48:33;;;;;;;5.57;5.00;;;24.30;65.70;;;;;;5097902;28;20246;-70
2023/06/26 08:51:07;;;;;;;5.20;4.78;;;24.30;65.90;;;;;;5072096;28;20216;-70
2023/06/26 08:53:58;;;;;;;5.60;5.13;;;24.30;65.70;;;;;;5075613;28;20200;-69
2023/06/26 08:56:32;;;;;;;5.22;4.75;;;24.40;66.00;;;;;;5081276;28;20181;-70
2023/06/26 08:58:58;;;;;;;5.32;4.70;;;24.40;65.90;;;;;;5098814;28;20216;-70
2023/06/26 09:01:24;;;;;;;5.03;4.63;;;24.30;65.80;;;;;;5103154;28;20226;-70
2023/06/26 09:03:52;;;;;;;5.25;4.72;;;24.30;65.70;;;;;;5091049;28;20684;-70
2023/06/26 09:06:18;;;;;;;4.82;4.43;;;24.30;65.70;;;;;;5072686;28;20275;-70
2023/06/26 09:08:44;;;;;;;5.75;5.20;;;24.30;65.70;;;;;;5072322;28;20185;-69
2023/06/26 09:11:10;;;;;;;5.35;4.88;;;24.40;65.80;;;;;;5114359;28;20216;-70
2023/06/26 09:13:36;;;;;;;5.60;5.10;;;24.40;65.80;;;;;;5078309;28;20210;-70
2023/06/26 09:16:09;;;;;;;5.32;4.82;;;24.40;65.60;;;;;;5089909;28;20180;-70
2023/06/26 09:18:35;;;;;;;5.32;4.82;;;24.40;65.80;;;;;;5098637;28;20642;-70
2023/06/26 09:21:08;;;;;;;5.38;4.88;;;24.40;65.80;;;;;;5072111;28;20199;-69
2023/06/26 09:23:35;;;;;;;5.18;4.68;;;24.40;65.80;;;;;;5097760;28;20208;-69
2023/06/26 09:26:04;;;;;;;5.32;4.82;;;24.40;65.80;;;;;;5097411;28;20191;-70
2023/06/26 09:28:33;;;;;;;5.22;4.75;;;24.40;65.60;;;;;;5078567;28;20283;-69
2023/06/26 09:31:09;;;;;;;5.45;4.95;;;24.40;65.70;;;;;;5107812;28;20228;-69
2023/06/26 09:33:38;;;;;;;4.70;4.30;;;24.40;65.70;;;;;;5076355;28;20357;-70
2023/06/26 09:36:12;;;;;;;4.97;4.55;;;24.40;65.80;;;;;;5089094;28;20185;-69
2023/06/26 09:38:38;;;;;;;5.03;4.53;;;24.40;65.80;;;;;;5072212;28;20200;-69
2023/06/26 09:41:04;;;;;;;5.30;4.80;;;24.40;65.80;;;;;;5089667;28;20212;-70
2023/06/26 09:43:31;;;;;;;5.10;4.70;;;24.40;65.70;;;;;;5079956;28;20228;-70
2023/06/26 09:45:58;;;;;;;5.00;4.40;;;24.40;65.80;;;;;;5094407;28;20185;-70
2023/06/26 09:48:24;;;;;;;5.03;4.63;;;24.40;65.70;;;;;;5075917;28;20282;-70
2023/06/26 09:50:50;;;;;;;4.97;4.57;;;24.40;65.90;;;;;;5089952;28;20225;-70
2023/06/26 09:53:18;;;;;;;4.95;4.47;;;24.40;65.80;;;;;;5075175;28;20205;-70
2023/06/26 09:55:43;;;;;;;4.70;4.30;;;24.40;65.80;;;;;;5093644;28;20193;-69
2023/06/26 09:58:14;;;;;;;5.30;4.80;;;24.40;65.60;;;;;;5076083;28;20180;-70
2023/06/26 10:00:42;;;;;;;5.00;4.60;;;24.40;65.60;;;;;;5093026;28;20200;-69
2023/06/26 10:03:09;;;;;;;5.50;5.00;;;24.40;65.70;;;;;;5091926;28;20203;-69
2023/06/26 10:05:35;;;;;;;5.15;4.65;;;24.40;65.60;;;;;;5093799;28;20253;-70
2023/06/26 10:08:02;;;;;;;4.80;4.40;;;24.40;65.60;;;;;;5093749;28;20193;-70
2023/06/26 10:10:28;;;;;;;4.90;4.50;;;24.40;65.70;;;;;;5093763;28;20238;-70
2023/06/26 10:13:11;;;;;;;4.47;4.07;;;24.50;65.90;;;;;;5075094;28;20297;-69
2023/06/26 10:15:40;;;;;;;4.85;4.45;;;24.40;65.70;;;;;;5075822;28;20284;-69
2023/06/26 10:18:06;;;;;;;4.88;3.97;;;24.40;65.70;;;;;;5074582;28;20190;-69
2023/06/26 10:20:33;;;;;;;4.80;4.40;;;24.40;65.70;;;;;;5092422;28;20250;-70
2023/06/26 10:23:02;;;;;;;4.60;4.20;;;24.40;65.60;;;;;;5109004;28;20589;-69
2023/06/26 10:25:31;;;;;;;4.78;4.38;;;24.40;65.80;;;;;;5094042;28;20193;-70
2023/06/26 10:28:01;;;;;;;4.95;4.55;;;24.40;65.80;;;;;;5084275;28;20305;-70
2023/06/26 10:30:33;;;;;;;4.68;4.28;;;24.50;65.70;;;;;;5083893;28;20205;-69
2023/06/26 10:33:02;;;;;;;5.03;4.63;;;24.40;65.70;;;;;;5091467;28;20209;-70
2023/06/26 10:35:28;;;;;;;5.32;4.50;;;24.50;65.90;;;;;;5100969;28;20188;-70
2023/06/26 10:38:04;;;;;;;7.25;4.20;;;24.50;65.80;;;;;;5083777;28;20184;-70
2023/06/26 10:40:42;;;;;;;4.85;4.43;;;24.50;65.70;;;;;;5098187;28;20187;-70
2023/06/26 10:43:09;;;;;;;5.18;4.68;;;24.50;65.70;;;;;;5090810;28;20247;-70
2023/06/26 10:45:36;;;;;;;4.75;4.35;;;24.60;65.80;;;;;;5075141;28;20228;-70
2023/06/26 10:48:04;;;;;;;5.90;5.22;;;24.60;65.80;;;;;;5083307;28;20186;-70
2023/06/26 10:50:32;;;;;;;5.68;4.97;;;24.60;65.80;;;;;;5069237;28;20293;-70
2023/06/26 10:53:26;;;;;;;5.65;5.15;;;24.60;65.80;;;;;;5071675;28;20197;-70
2023/06/26 10:56:00;;;;;;;6.30;5.70;;;24.60;66.30;;;;;;5072541;28;20196;-70
2023/06/26 10:58:40;;;;;;;5.63;5.13;;;24.60;67.30;;;;;;5093014;28;20189;-70
2023/06/26 11:01:19;;;;;;;5.93;5.43;;;24.60;66.80;;;;;;5087353;28;20184;-70
2023/06/26 11:04:06;;;;;;;6.57;5.95;;;24.60;67.20;;;;;;5072517;28;20189;-70
2023/06/26 11:06:35;;;;;;;7.30;6.60;;;24.70;67.50;;;;;;5064807;28;20188;-69
2023/06/26 11:09:18;;;;;;;8.60;6.47;;;24.70;67.40;;;;;;5072477;28;20246;-70
2023/06/26 11:11:57;;;;;;;7.28;6.60;;;24.70;67.50;;;;;;5088891;28;20224;-69
2023/06/26 11:14:26;;;;;;;7.15;6.55;;;24.70;67.60;;;;;;5087816;28;20242;-69
2023/06/26 11:16:57;;;;;;;8.07;5.93;;;24.70;67.60;;;;;;5089469;28;20197;-69
2023/06/26 11:19:25;;;;;;;7.65;6.45;;;24.80;67.60;;;;;;5061905;28;20193;-69
2023/06/26 11:21:52;;;;;;;7.05;6.30;;;24.70;67.50;;;;;;5071284;28;20258;-69
2023/06/26 11:24:19;;;;;;;6.75;6.10;;;24.80;67.60;;;;;;5059456;28;20212;-69
2023/06/26 11:26:46;;;;;;;7.07;6.47;;;24.70;67.20;;;;;;5068001;28;20264;-70
2023/06/26 11:29:13;;;;;;;7.07;6.38;;;24.80;67.30;;;;;;5084183;28;20207;-70
2023/06/26 11:31:41;;;;;;;6.50;5.90;;;24.80;67.30;;;;;;5102222;28;20227;-70
2023/06/26 11:34:12;;;;;;;6.68;6.07;;;24.70;67.20;;;;;;5083986;28;20196;-69
2023/06/26 11:36:45;;;;;;;6.55;5.50;;;24.70;67.10;;;;;;5094875;28;20194;-69
2023/06/26 11:39:11;;;;;;;7.38;5.57;;;24.70;67.20;;;;;;5098419;28;20280;-70
2023/06/26 11:41:39;;;;;;;7.10;6.40;;;24.70;67.30;;;;;;5088831;28;20283;-71
2023/06/26 11:44:10;;;;;;;6.38;5.78;;;24.80;67.30;;;;;;5083927;28;20207;-69
2023/06/26 11:46:37;;;;;;;7.40;6.18;;;24.70;67.20;;;;;;5093617;28;20188;-70
2023/06/26 11:49:04;;;;;;;7.35;5.78;;;24.70;67.30;;;;;;5100618;28;20638;-70
2023/06/26 11:51:30;;;;;;;6.18;5.57;;;24.80;67.30;;;;;;5095287;28;20294;-70
2023/06/26 11:53:56;;;;;;;6.50;5.90;;;24.70;67.20;;;;;;5118576;27;20271;-69
2023/06/26 11:56:26;;;;;;;9.00;5.70;;;24.70;67.30;;;;;;5086294;28;20180;-70
2023/06/26 11:59:05;;;;;;;6.10;5.57;;;24.70;67.30;;;;;;5093900;28;20189;-68
2023/06/26 12:01:52;;;;;;;6.07;5.45;;;24.70;67.40;;;;;;5083428;28;20192;-70
2023/06/26 12:04:19;;;;;;;7.63;5.40;;;24.70;67.40;;;;;;5084880;28;20259;-69
2023/06/26 12:06:50;;;;;;;5.40;4.95;;;24.80;67.60;;;;;;5118638;27;20184;-70
2023/06/26 12:09:18;;;;;;;6.13;5.47;;;24.80;67.50;;;;;;5106283;28;20256;-69
2023/06/26 12:11:48;;;;;;;6.32;5.72;;;24.70;67.40;;;;;;5089890;28;20235;-70
2023/06/26 12:14:15;;;;;;;5.80;5.15;;;24.80;67.50;;;;;;5092558;28;20180;-68
2023/06/26 12:16:42;;;;;;;5.90;5.30;;;24.70;67.40;;;;;;5101800;28;20184;-69
2023/06/26 12:19:08;;;;;;;5.53;5.07;;;24.80;67.50;;;;;;5082804;28;20272;-70
2023/06/26 12:21:37;;;;;;;6.47;5.75;;;24.70;67.30;;;;;;5072949;28;20341;-70
2023/06/26 12:24:08;;;;;;;5.95;5.05;;;24.70;67.40;;;;;;5081117;28;20230;-70
2023/06/26 12:26:38;;;;;;;5.72;5.22;;;24.80;67.50;;;;;;5086962;28;20195;-70
2023/06/26 12:29:17;;;;;;;5.82;5.32;;;24.80;67.60;;;;;;5091530;28;20212;-70
2023/06/26 12:31:52;;;;;;;5.72;5.22;;;24.80;67.40;;;;;;5072619;28;20720;-70
2023/06/26 12:34:28;;;;;;;5.95;5.45;;;24.80;67.50;;;;;;5097964;28;20188;-70
2023/06/26 12:37:00;;;;;;;5.38;4.88;;;24.80;67.50;;;;;;5083823;28;20282;-70
2023/06/26 12:39:27;;;;;;;7.25;5.07;;;24.70;67.30;;;;;;5086369;28;20216;-70
2023/06/26 12:42:01;;;;;;;6.28;5.60;;;24.80;67.50;;;;;;5108240;27;20234;-69
2023/06/26 12:44:29;;;;;;;5.70;5.20;;;24.80;67.50;;;;;;5094048;28;20188;-71
2023/06/26 12:47:00;;;;;;;5.72;5.22;;;24.80;67.50;;;;;;5089820;28;20213;-72
2023/06/26 12:49:38;;;;;;;5.65;5.05;;;24.80;67.50;;;;;;5091833;28;20266;-70
2023/06/26 12:52:08;;;;;;;6.22;5.65;;;24.80;67.40;;;;;;5117833;27;20223;-70